Oilton, Texas
Current Conditions -  °F | °C
As of 10:55 PM on Thursday 30 Oct 2014 (Local Time) from KHBV Reporting Station
Clear Clear  
Wind Chill: 71°   Ceiling: Unl
Heat Index: 71°   Visibility: 10mi
Dew Point: 65°   Wind: 3mph
Humidity: 82%   Direction: 110°ESE
Pressure: 30.1"   Gusts: NA
Location:  27.47°N, 98.97°W
Report Text: KHBV 310355Z AUTO 11003KT 10SM CLR 22/19 A3010 RMK AO2 T02170185 PWINO
Loading
Personal Weather Stations






























Interactive Weather Map
Tropical Storm Tracking
New forecast layout! Learn more

10-Day Weather Forecast

Advertisements
Track Severe Weather on mobile